sensor_id;sensor_type;location;lat;lon;timestamp;P1;durP1;ratioP1;P2;durP2;ratioP2
70946;SDS011;58605;48.700;8.760;2023-08-17T00:01:50;14.82;;;8.50;;
70946;SDS011;58605;48.700;8.760;2023-08-17T00:04:16;11.48;;;9.05;;
70946;SDS011;58605;48.700;8.760;2023-08-17T00:06:43;14.32;;;8.82;;
70946;SDS011;58605;48.700;8.760;2023-08-17T00:09:12;12.45;;;9.85;;
70946;SDS011;58605;48.700;8.760;2023-08-17T00:11:38;12.05;;;9.52;;
70946;SDS011;58605;48.700;8.760;2023-08-17T00:14:04;16.08;;;10.85;;
70946;SDS011;58605;48.700;8.760;2023-08-17T00:16:31;12.27;;;9.15;;
70946;SDS011;58605;48.700;8.760;2023-08-17T00:18:57;14.65;;;9.70;;
70946;SDS011;58605;48.700;8.760;2023-08-17T00:21:23;12.18;;;10.35;;
70946;SDS011;58605;48.700;8.760;2023-08-17T00:23:51;12.10;;;10.02;;
70946;SDS011;58605;48.700;8.760;2023-08-17T00:26:17;15.05;;;11.02;;
70946;SDS011;58605;48.700;8.760;2023-08-17T00:28:43;40.03;;;11.07;;
70946;SDS011;58605;48.700;8.760;2023-08-17T00:31:10;29.67;;;8.98;;
70946;SDS011;58605;48.700;8.760;2023-08-17T00:33:36;443.27;;;30.43;;
70946;SDS011;58605;48.700;8.760;2023-08-17T00:36:02;296.98;;;22.27;;
70946;SDS011;58605;48.700;8.760;2023-08-17T00:38:29;350.90;;;22.13;;
70946;SDS011;58605;48.700;8.760;2023-08-17T00:40:56;296.92;;;18.08;;
70946;SDS011;58605;48.700;8.760;2023-08-17T00:43:23;231.52;;;14.93;;
70946;SDS011;58605;48.700;8.760;2023-08-17T00:45:49;209.50;;;16.38;;
70946;SDS011;58605;48.700;8.760;2023-08-17T00:48:15;277.98;;;16.27;;
70946;SDS011;58605;48.700;8.760;2023-08-17T00:50:41;208.70;;;12.65;;
70946;SDS011;58605;48.700;8.760;2023-08-17T00:53:08;117.28;;;8.77;;
70946;SDS011;58605;48.700;8.760;2023-08-17T00:55:41;81.35;;;9.60;;
70946;SDS011;58605;48.700;8.760;2023-08-17T00:58:08;129.57;;;11.37;;
70946;SDS011;58605;48.700;8.760;2023-08-17T01:00:35;166.23;;;12.53;;
70946;SDS011;58605;48.700;8.760;2023-08-17T01:03:01;191.33;;;12.97;;
70946;SDS011;58605;48.700;8.760;2023-08-17T01:05:27;178.47;;;12.57;;
70946;SDS011;58605;48.700;8.760;2023-08-17T01:07:54;157.70;;;11.73;;
70946;SDS011;58605;48.700;8.760;2023-08-17T01:10:21;155.17;;;12.60;;
70946;SDS011;58605;48.700;8.760;2023-08-17T01:12:49;152.70;;;12.20;;
70946;SDS011;58605;48.700;8.760;2023-08-17T01:15:24;192.85;;;14.40;;
70946;SDS011;58605;48.700;8.760;2023-08-17T01:17:56;197.80;;;14.17;;
70946;SDS011;58605;48.700;8.760;2023-08-17T01:20:30;231.98;;;14.70;;
70946;SDS011;58605;48.700;8.760;2023-08-17T01:23:06;173.43;;;13.83;;
70946;SDS011;58605;48.700;8.760;2023-08-17T01:25:32;132.27;;;11.03;;
70946;SDS011;58605;48.700;8.760;2023-08-17T01:28:02;164.50;;;11.37;;
70946;SDS011;58605;48.700;8.760;2023-08-17T01:30:30;114.03;;;10.43;;
70946;SDS011;58605;48.700;8.760;2023-08-17T01:33:03;137.47;;;9.70;;
70946;SDS011;58605;48.700;8.760;2023-08-17T01:35:44;76.83;;;8.57;;
70946;SDS011;58605;48.700;8.760;2023-08-17T01:38:16;86.37;;;8.63;;
70946;SDS011;58605;48.700;8.760;2023-08-17T01:40:44;56.53;;;6.60;;
70946;SDS011;58605;48.700;8.760;2023-08-17T01:43:12;70.03;;;8.02;;
70946;SDS011;58605;48.700;8.760;2023-08-17T01:45:39;64.40;;;7.90;;
70946;SDS011;58605;48.700;8.760;2023-08-17T01:48:06;80.47;;;7.67;;
70946;SDS011;58605;48.700;8.760;2023-08-17T01:50:32;99.63;;;8.50;;
70946;SDS011;58605;48.700;8.760;2023-08-17T01:52:58;68.70;;;7.67;;
70946;SDS011;58605;48.700;8.760;2023-08-17T01:55:26;69.83;;;8.43;;
70946;SDS011;58605;48.700;8.760;2023-08-17T01:57:52;64.00;;;7.17;;
70946;SDS011;58605;48.700;8.760;2023-08-17T02:00:18;46.15;;;6.15;;
70946;SDS011;58605;48.700;8.760;2023-08-17T02:02:44;89.60;;;7.47;;
70946;SDS011;58605;48.700;8.760;2023-08-17T02:05:11;74.63;;;8.37;;
70946;SDS011;58605;48.700;8.760;2023-08-17T02:07:37;123.50;;;10.10;;
70946;SDS011;58605;48.700;8.760;2023-08-17T02:10:03;107.90;;;11.27;;
70946;SDS011;58605;48.700;8.760;2023-08-17T02:12:31;91.63;;;10.13;;
70946;SDS011;58605;48.700;8.760;2023-08-17T02:14:57;62.87;;;7.90;;
70946;SDS011;58605;48.700;8.760;2023-08-17T02:17:23;54.80;;;8.10;;
70946;SDS011;58605;48.700;8.760;2023-08-17T02:19:50;57.37;;;9.47;;
70946;SDS011;58605;48.700;8.760;2023-08-17T02:22:16;113.37;;;10.73;;
70946;SDS011;58605;48.700;8.760;2023-08-17T02:24:42;71.53;;;9.10;;
70946;SDS011;58605;48.700;8.760;2023-08-17T02:27:08;90.93;;;9.93;;
70946;SDS011;58605;48.700;8.760;2023-08-17T02:29:36;247.97;;;17.07;;
70946;SDS011;58605;48.700;8.760;2023-08-17T02:32:02;187.43;;;13.43;;
70946;SDS011;58605;48.700;8.760;2023-08-17T02:34:28;128.67;;;11.17;;
70946;SDS011;58605;48.700;8.760;2023-08-17T02:36:54;175.77;;;13.20;;
70946;SDS011;58605;48.700;8.760;2023-08-17T02:39:20;186.23;;;15.27;;
70946;SDS011;58605;48.700;8.760;2023-08-17T02:41:47;269.47;;;17.10;;
70946;SDS011;58605;48.700;8.760;2023-08-17T02:44:14;143.43;;;11.90;;
70946;SDS011;58605;48.700;8.760;2023-08-17T02:46:42;42.78;;;7.00;;
70946;SDS011;58605;48.700;8.760;2023-08-17T02:49:08;43.40;;;6.07;;
70946;SDS011;58605;48.700;8.760;2023-08-17T02:51:34;40.17;;;7.53;;
70946;SDS011;58605;48.700;8.760;2023-08-17T02:54:00;20.80;;;6.43;;
70946;SDS011;58605;48.700;8.760;2023-08-17T02:56:27;16.35;;;5.57;;
70946;SDS011;58605;48.700;8.760;2023-08-17T02:58:53;8.65;;;5.85;;
70946;SDS011;58605;48.700;8.760;2023-08-17T03:01:19;6.70;;;5.20;;
70946;SDS011;58605;48.700;8.760;2023-08-17T03:03:46;6.70;;;5.47;;
70946;SDS011;58605;48.700;8.760;2023-08-17T03:06:13;12.30;;;6.45;;
70946;SDS011;58605;48.700;8.760;2023-08-17T03:08:39;8.38;;;6.05;;
70946;SDS011;58605;48.700;8.760;2023-08-17T03:11:05;9.95;;;5.75;;
70946;SDS011;58605;48.700;8.760;2023-08-17T03:13:32;6.17;;;5.50;;
70946;SDS011;58605;48.700;8.760;2023-08-17T03:15:58;5.40;;;4.65;;
70946;SDS011;58605;48.700;8.760;2023-08-17T03:18:24;7.77;;;5.20;;
70946;SDS011;58605;48.700;8.760;2023-08-17T03:20:52;6.87;;;5.77;;
70946;SDS011;58605;48.700;8.760;2023-08-17T03:23:18;12.97;;;5.80;;
70946;SDS011;58605;48.700;8.760;2023-08-17T03:25:44;7.30;;;5.85;;
70946;SDS011;58605;48.700;8.760;2023-08-17T03:28:11;7.53;;;5.47;;
70946;SDS011;58605;48.700;8.760;2023-08-17T03:30:37;38.90;;;7.43;;
70946;SDS011;58605;48.700;8.760;2023-08-17T03:33:03;24.93;;;7.03;;
70946;SDS011;58605;48.700;8.760;2023-08-17T03:35:29;8.40;;;6.63;;
70946;SDS011;58605;48.700;8.760;2023-08-17T03:37:57;34.93;;;7.53;;
70946;SDS011;58605;48.700;8.760;2023-08-17T03:40:23;103.93;;;11.77;;
70946;SDS011;58605;48.700;8.760;2023-08-17T03:42:49;287.15;;;20.95;;
70946;SDS011;58605;48.700;8.760;2023-08-17T03:45:15;82.47;;;10.97;;
70946;SDS011;58605;48.700;8.760;2023-08-17T03:47:41;16.95;;;8.65;;
70946;SDS011;58605;48.700;8.760;2023-08-17T03:50:08;15.90;;;6.97;;
70946;SDS011;58605;48.700;8.760;2023-08-17T03:52:35;9.80;;;8.13;;
70946;SDS011;58605;48.700;8.760;2023-08-17T03:55:09;8.80;;;7.20;;
70946;SDS011;58605;48.700;8.760;2023-08-17T03:57:35;11.93;;;7.60;;
70946;SDS011;58605;48.700;8.760;2023-08-17T04:00:01;9.47;;;6.83;;
70946;SDS011;58605;48.700;8.760;2023-08-17T04:02:28;12.80;;;7.60;;
70946;SDS011;58605;48.700;8.760;2023-08-17T04:04:54;9.77;;;6.77;;
70946;SDS011;58605;48.700;8.760;2023-08-17T04:07:20;10.07;;;6.37;;
70946;SDS011;58605;48.700;8.760;2023-08-17T04:09:47;11.65;;;7.80;;
70946;SDS011;58605;48.700;8.760;2023-08-17T04:12:15;13.73;;;8.13;;
70946;SDS011;58605;48.700;8.760;2023-08-17T04:14:41;13.30;;;7.53;;
70946;SDS011;58605;48.700;8.760;2023-08-17T04:17:07;27.17;;;7.60;;
70946;SDS011;58605;48.700;8.760;2023-08-17T04:19:33;21.70;;;6.70;;
70946;SDS011;58605;48.700;8.760;2023-08-17T04:21:59;15.15;;;7.10;;
70946;SDS011;58605;48.700;8.760;2023-08-17T04:24:25;13.97;;;6.80;;
70946;SDS011;58605;48.700;8.760;2023-08-17T04:26:51;7.43;;;6.35;;
70946;SDS011;58605;48.700;8.760;2023-08-17T04:29:19;14.73;;;7.78;;
70946;SDS011;58605;48.700;8.760;2023-08-17T04:31:45;10.00;;;6.40;;
70946;SDS011;58605;48.700;8.760;2023-08-17T04:34:11;10.77;;;7.10;;
70946;SDS011;58605;48.700;8.760;2023-08-17T04:36:37;9.70;;;7.53;;
70946;SDS011;58605;48.700;8.760;2023-08-17T04:39:04;13.77;;;7.60;;
70946;SDS011;58605;48.700;8.760;2023-08-17T04:41:30;12.23;;;7.18;;
70946;SDS011;58605;48.700;8.760;2023-08-17T04:43:56;12.80;;;7.40;;
70946;SDS011;58605;48.700;8.760;2023-08-17T04:46:23;26.52;;;8.90;;
70946;SDS011;58605;48.700;8.760;2023-08-17T04:48:49;23.48;;;8.32;;
70946;SDS011;58605;48.700;8.760;2023-08-17T04:51:16;20.65;;;7.43;;
70946;SDS011;58605;48.700;8.760;2023-08-17T04:53:42;30.75;;;8.48;;
70946;SDS011;58605;48.700;8.760;2023-08-17T04:56:08;38.08;;;8.98;;
70946;SDS011;58605;48.700;8.760;2023-08-17T04:58:34;46.58;;;9.07;;
70946;SDS011;58605;48.700;8.760;2023-08-17T05:01:00;48.92;;;8.73;;
70946;SDS011;58605;48.700;8.760;2023-08-17T05:03:27;52.97;;;8.35;;
70946;SDS011;58605;48.700;8.760;2023-08-17T05:05:53;49.60;;;8.70;;
70946;SDS011;58605;48.700;8.760;2023-08-17T05:08:19;32.43;;;7.90;;
70946;SDS011;58605;48.700;8.760;2023-08-17T05:10:47;26.35;;;8.50;;
70946;SDS011;58605;48.700;8.760;2023-08-17T05:13:13;38.27;;;8.77;;
70946;SDS011;58605;48.700;8.760;2023-08-17T05:15:39;39.30;;;9.13;;
70946;SDS011;58605;48.700;8.760;2023-08-17T05:18:06;28.65;;;7.22;;
70946;SDS011;58605;48.700;8.760;2023-08-17T05:20:34;33.63;;;8.23;;
70946;SDS011;58605;48.700;8.760;2023-08-17T05:23:00;43.53;;;8.37;;
70946;SDS011;58605;48.700;8.760;2023-08-17T05:25:26;46.63;;;8.03;;
70946;SDS011;58605;48.700;8.760;2023-08-17T05:27:54;47.20;;;9.60;;
70946;SDS011;58605;48.700;8.760;2023-08-17T05:30:20;43.23;;;8.97;;
70946;SDS011;58605;48.700;8.760;2023-08-17T05:32:46;107.23;;;12.00;;
70946;SDS011;58605;48.700;8.760;2023-08-17T05:35:13;38.83;;;9.20;;
70946;SDS011;58605;48.700;8.760;2023-08-17T05:37:40;141.80;;;14.20;;
70946;SDS011;58605;48.700;8.760;2023-08-17T05:40:07;192.27;;;16.88;;
70946;SDS011;58605;48.700;8.760;2023-08-17T05:42:34;150.73;;;14.70;;
70946;SDS011;58605;48.700;8.760;2023-08-17T05:45:00;410.50;;;25.83;;
70946;SDS011;58605;48.700;8.760;2023-08-17T05:47:26;413.25;;;23.98;;
70946;SDS011;58605;48.700;8.760;2023-08-17T05:49:52;352.33;;;23.40;;
70946;SDS011;58605;48.700;8.760;2023-08-17T05:52:18;387.77;;;26.17;;
70946;SDS011;58605;48.700;8.760;2023-08-17T05:54:46;319.20;;;22.47;;
70946;SDS011;58605;48.700;8.760;2023-08-17T05:57:12;421.73;;;27.03;;
70946;SDS011;58605;48.700;8.760;2023-08-17T05:59:38;307.13;;;24.27;;
70946;SDS011;58605;48.700;8.760;2023-08-17T06:02:05;355.20;;;23.43;;
70946;SDS011;58605;48.700;8.760;2023-08-17T06:04:31;294.23;;;20.53;;
70946;SDS011;58605;48.700;8.760;2023-08-17T06:06:57;307.20;;;21.87;;
70946;SDS011;58605;48.700;8.760;2023-08-17T06:09:25;277.67;;;21.70;;
70946;SDS011;58605;48.700;8.760;2023-08-17T06:11:53;220.33;;;18.03;;
70946;SDS011;58605;48.700;8.760;2023-08-17T06:14:19;249.70;;;19.00;;
70946;SDS011;58605;48.700;8.760;2023-08-17T06:16:45;332.67;;;23.30;;
70946;SDS011;58605;48.700;8.760;2023-08-17T06:19:11;289.53;;;21.37;;
70946;SDS011;58605;48.700;8.760;2023-08-17T06:21:38;200.00;;;18.33;;
70946;SDS011;58605;48.700;8.760;2023-08-17T06:24:04;242.67;;;18.63;;
70946;SDS011;58605;48.700;8.760;2023-08-17T06:26:30;294.90;;;22.43;;
70946;SDS011;58605;48.700;8.760;2023-08-17T06:28:58;201.63;;;18.07;;
70946;SDS011;58605;48.700;8.760;2023-08-17T06:31:24;144.13;;;15.47;;
70946;SDS011;58605;48.700;8.760;2023-08-17T06:33:52;319.20;;;23.50;;
70946;SDS011;58605;48.700;8.760;2023-08-17T06:36:19;222.47;;;17.47;;
70946;SDS011;58605;48.700;8.760;2023-08-17T06:38:45;402.57;;;25.63;;
70946;SDS011;58605;48.700;8.760;2023-08-17T06:41:11;437.30;;;29.08;;
70946;SDS011;58605;48.700;8.760;2023-08-17T06:43:37;386.67;;;23.85;;
70946;SDS011;58605;48.700;8.760;2023-08-17T06:46:05;368.87;;;24.83;;
70946;SDS011;58605;48.700;8.760;2023-08-17T06:48:31;225.83;;;17.67;;
70946;SDS011;58605;48.700;8.760;2023-08-17T06:50:57;293.60;;;21.10;;
70946;SDS011;58605;48.700;8.760;2023-08-17T06:53:23;236.27;;;17.20;;
70946;SDS011;58605;48.700;8.760;2023-08-17T06:55:50;249.83;;;20.30;;
70946;SDS011;58605;48.700;8.760;2023-08-17T06:58:16;235.00;;;19.70;;
70946;SDS011;58605;48.700;8.760;2023-08-17T07:00:42;90.47;;;12.50;;
70946;SDS011;58605;48.700;8.760;2023-08-17T07:03:11;151.88;;;15.32;;
70946;SDS011;58605;48.700;8.760;2023-08-17T07:05:37;101.75;;;13.65;;
70946;SDS011;58605;48.700;8.760;2023-08-17T07:08:03;39.17;;;10.18;;
70946;SDS011;58605;48.700;8.760;2023-08-17T07:10:30;14.05;;;11.60;;
70946;SDS011;58605;48.700;8.760;2023-08-17T07:12:56;13.73;;;11.70;;
70946;SDS011;58605;48.700;8.760;2023-08-17T07:15:22;29.77;;;12.40;;
70946;SDS011;58605;48.700;8.760;2023-08-17T07:17:48;20.17;;;11.45;;
70946;SDS011;58605;48.700;8.760;2023-08-17T07:20:16;48.20;;;11.37;;
70946;SDS011;58605;48.700;8.760;2023-08-17T07:22:42;22.27;;;9.75;;
70946;SDS011;58605;48.700;8.760;2023-08-17T07:25:08;15.23;;;9.23;;
70946;SDS011;58605;48.700;8.760;2023-08-17T07:27:34;64.80;;;12.73;;
70946;SDS011;58605;48.700;8.760;2023-08-17T07:30:00;87.90;;;14.13;;
70946;SDS011;58605;48.700;8.760;2023-08-17T07:32:28;92.90;;;11.55;;
70946;SDS011;58605;48.700;8.760;2023-08-17T07:34:54;121.85;;;14.82;;
70946;SDS011;58605;48.700;8.760;2023-08-17T07:37:22;56.03;;;11.68;;
70946;SDS011;58605;48.700;8.760;2023-08-17T07:39:48;56.47;;;12.07;;
70946;SDS011;58605;48.700;8.760;2023-08-17T07:42:14;11.40;;;10.20;;
70946;SDS011;58605;48.700;8.760;2023-08-17T07:44:40;15.30;;;10.50;;
70946;SDS011;58605;48.700;8.760;2023-08-17T07:47:07;13.23;;;11.30;;
70946;SDS011;58605;48.700;8.760;2023-08-17T07:49:33;14.63;;;11.32;;
70946;SDS011;58605;48.700;8.760;2023-08-17T07:51:59;12.45;;;10.32;;
70946;SDS011;58605;48.700;8.760;2023-08-17T07:54:26;12.63;;;10.07;;
70946;SDS011;58605;48.700;8.760;2023-08-17T07:56:53;11.68;;;9.43;;
70946;SDS011;58605;48.700;8.760;2023-08-17T07:59:19;14.15;;;9.30;;
70946;SDS011;58605;48.700;8.760;2023-08-17T08:01:45;9.48;;;8.48;;
70946;SDS011;58605;48.700;8.760;2023-08-17T08:04:11;9.82;;;8.82;;
70946;SDS011;58605;48.700;8.760;2023-08-17T08:06:37;13.70;;;10.07;;
70946;SDS011;58605;48.700;8.760;2023-08-17T08:09:03;13.65;;;10.63;;
70946;SDS011;58605;48.700;8.760;2023-08-17T08:11:31;11.80;;;10.38;;
70946;SDS011;58605;48.700;8.760;2023-08-17T08:13:57;14.70;;;12.27;;
70946;SDS011;58605;48.700;8.760;2023-08-17T08:16:23;12.30;;;11.10;;
70946;SDS011;58605;48.700;8.760;2023-08-17T08:18:49;11.02;;;9.73;;
70946;SDS011;58605;48.700;8.760;2023-08-17T08:21:16;11.27;;;10.02;;
70946;SDS011;58605;48.700;8.760;2023-08-17T08:23:42;10.32;;;9.15;;
70946;SDS011;58605;48.700;8.760;2023-08-17T08:26:08;10.25;;;8.75;;
70946;SDS011;58605;48.700;8.760;2023-08-17T08:28:36;8.98;;;8.07;;
70946;SDS011;58605;48.700;8.760;2023-08-17T08:31:02;10.43;;;9.30;;
70946;SDS011;58605;48.700;8.760;2023-08-17T08:33:31;11.52;;;9.05;;
70946;SDS011;58605;48.700;8.760;2023-08-17T08:35:57;9.05;;;8.15;;
70946;SDS011;58605;48.700;8.760;2023-08-17T08:38:23;9.88;;;8.95;;
70946;SDS011;58605;48.700;8.760;2023-08-17T08:40:49;8.68;;;7.53;;
70946;SDS011;58605;48.700;8.760;2023-08-17T08:43:16;7.00;;;6.28;;
70946;SDS011;58605;48.700;8.760;2023-08-17T08:45:44;7.47;;;6.43;;
70946;SDS011;58605;48.700;8.760;2023-08-17T08:48:11;7.60;;;6.88;;
70946;SDS011;58605;48.700;8.760;2023-08-17T08:50:40;6.63;;;5.82;;
70946;SDS011;58605;48.700;8.760;2023-08-17T08:53:09;7.53;;;6.82;;
70946;SDS011;58605;48.700;8.760;2023-08-17T08:55:38;8.45;;;6.43;;
70946;SDS011;58605;48.700;8.760;2023-08-17T08:58:12;7.18;;;6.45;;
70946;SDS011;58605;48.700;8.760;2023-08-17T09:00:40;9.43;;;6.65;;
70946;SDS011;58605;48.700;8.760;2023-08-17T09:03:09;11.13;;;8.15;;
70946;SDS011;58605;48.700;8.760;2023-08-17T09:05:35;8.73;;;7.80;;
70946;SDS011;58605;48.700;8.760;2023-08-17T09:08:03;8.90;;;7.50;;
70946;SDS011;58605;48.700;8.760;2023-08-17T09:10:31;7.38;;;6.68;;
70946;SDS011;58605;48.700;8.760;2023-08-17T09:12:57;7.20;;;6.50;;
70946;SDS011;58605;48.700;8.760;2023-08-17T09:15:23;5.72;;;5.05;;
70946;SDS011;58605;48.700;8.760;2023-08-17T09:17:49;5.05;;;4.55;;
70946;SDS011;58605;48.700;8.760;2023-08-17T09:23:09;4.97;;;4.43;;
70946;SDS011;58605;48.700;8.760;2023-08-17T09:25:38;4.53;;;4.00;;
70946;SDS011;58605;48.700;8.760;2023-08-17T09:28:08;5.15;;;4.65;;
70946;SDS011;58605;48.700;8.760;2023-08-17T09:30:48;4.20;;;3.80;;
70946;SDS011;58605;48.700;8.760;2023-08-17T09:33:17;4.15;;;3.70;;
70946;SDS011;58605;48.700;8.760;2023-08-17T09:35:45;5.85;;;4.10;;
70946;SDS011;58605;48.700;8.760;2023-08-17T09:38:11;4.40;;;3.60;;
70946;SDS011;58605;48.700;8.760;2023-08-17T09:40:37;3.70;;;3.40;;
70946;SDS011;58605;48.700;8.760;2023-08-17T09:43:04;4.30;;;3.90;;
70946;SDS011;58605;48.700;8.760;2023-08-17T09:45:30;6.07;;;5.20;;
70946;SDS011;58605;48.700;8.760;2023-08-17T09:47:58;6.78;;;5.95;;
70946;SDS011;58605;48.700;8.760;2023-08-17T09:50:24;5.25;;;3.75;;
70946;SDS011;58605;48.700;8.760;2023-08-17T09:52:54;5.88;;;3.63;;
70946;SDS011;58605;48.700;8.760;2023-08-17T09:55:20;4.03;;;3.53;;
70946;SDS011;58605;48.700;8.760;2023-08-17T09:57:48;7.13;;;4.78;;
70946;SDS011;58605;48.700;8.760;2023-08-17T10:00:16;4.35;;;3.95;;
70946;SDS011;58605;48.700;8.760;2023-08-17T10:02:42;4.13;;;3.72;;
70946;SDS011;58605;48.700;8.760;2023-08-17T10:05:09;4.13;;;3.70;;
70946;SDS011;58605;48.700;8.760;2023-08-17T10:07:38;5.55;;;3.60;;
70946;SDS011;58605;48.700;8.760;2023-08-17T10:10:09;4.22;;;3.83;;
70946;SDS011;58605;48.700;8.760;2023-08-17T10:12:37;4.18;;;3.78;;
70946;SDS011;58605;48.700;8.760;2023-08-17T10:15:10;4.28;;;3.88;;
70946;SDS011;58605;48.700;8.760;2023-08-17T10:17:39;5.85;;;4.38;;
70946;SDS011;58605;48.700;8.760;2023-08-17T10:20:23;5.15;;;4.30;;
70946;SDS011;58605;48.700;8.760;2023-08-17T10:22:52;4.60;;;4.20;;
70946;SDS011;58605;48.700;8.760;2023-08-17T10:25:26;5.60;;;4.65;;
70946;SDS011;58605;48.700;8.760;2023-08-17T10:27:54;5.20;;;4.70;;
70946;SDS011;58605;48.700;8.760;2023-08-17T10:30:20;4.30;;;3.50;;
70946;SDS011;58605;48.700;8.760;2023-08-17T10:32:46;6.25;;;3.72;;
70946;SDS011;58605;48.700;8.760;2023-08-17T10:35:13;6.88;;;4.43;;
70946;SDS011;58605;48.700;8.760;2023-08-17T10:37:39;8.30;;;4.38;;
70946;SDS011;58605;48.700;8.760;2023-08-17T10:40:07;7.03;;;5.25;;
70946;SDS011;58605;48.700;8.760;2023-08-17T10:42:36;5.80;;;4.70;;
70946;SDS011;58605;48.700;8.760;2023-08-17T10:45:24;6.70;;;4.55;;
70946;SDS011;58605;48.700;8.760;2023-08-17T10:47:55;4.57;;;4.18;;
70946;SDS011;58605;48.700;8.760;2023-08-17T10:50:26;5.18;;;4.68;;
70946;SDS011;58605;48.700;8.760;2023-08-17T10:52:53;5.18;;;4.00;;
70946;SDS011;58605;48.700;8.760;2023-08-17T10:55:34;5.68;;;3.90;;
70946;SDS011;58605;48.700;8.760;2023-08-17T10:58:03;5.00;;;4.25;;
70946;SDS011;58605;48.700;8.760;2023-08-17T11:00:31;5.03;;;4.43;;
70946;SDS011;58605;48.700;8.760;2023-08-17T11:03:03;6.25;;;5.63;;
70946;SDS011;58605;48.700;8.760;2023-08-17T11:05:40;7.57;;;4.97;;
70946;SDS011;58605;48.700;8.760;2023-08-17T11:08:08;4.82;;;4.43;;
70946;SDS011;58605;48.700;8.760;2023-08-17T11:10:35;5.45;;;4.95;;
70946;SDS011;58605;48.700;8.760;2023-08-17T11:13:03;5.30;;;4.05;;
70946;SDS011;58605;48.700;8.760;2023-08-17T11:15:37;5.18;;;4.47;;
70946;SDS011;58605;48.700;8.760;2023-08-17T11:18:05;5.00;;;4.30;;
70946;SDS011;58605;48.700;8.760;2023-08-17T11:20:32;4.90;;;4.32;;
70946;SDS011;58605;48.700;8.760;2023-08-17T11:22:59;6.88;;;4.35;;
70946;SDS011;58605;48.700;8.760;2023-08-17T11:25:25;5.82;;;5.03;;
70946;SDS011;58605;48.700;8.760;2023-08-17T11:27:52;5.78;;;4.32;;
70946;SDS011;58605;48.700;8.760;2023-08-17T11:30:20;8.43;;;5.03;;
70946;SDS011;58605;48.700;8.760;2023-08-17T11:32:50;4.53;;;4.07;;
70946;SDS011;58605;48.700;8.760;2023-08-17T11:35:17;5.93;;;4.50;;
70946;SDS011;58605;48.700;8.760;2023-08-17T11:37:43;7.40;;;4.93;;
70946;SDS011;58605;48.700;8.760;2023-08-17T11:40:10;6.15;;;4.40;;
70946;SDS011;58605;48.700;8.760;2023-08-17T11:42:36;6.68;;;4.68;;
70946;SDS011;58605;48.700;8.760;2023-08-17T11:45:03;5.05;;;4.60;;
70946;SDS011;58605;48.700;8.760;2023-08-17T11:47:32;7.03;;;4.68;;
70946;SDS011;58605;48.700;8.760;2023-08-17T11:50:01;7.20;;;4.40;;
70946;SDS011;58605;48.700;8.760;2023-08-17T11:52:28;5.28;;;4.78;;
70946;SDS011;58605;48.700;8.760;2023-08-17T11:54:57;5.70;;;4.88;;
70946;SDS011;58605;48.700;8.760;2023-08-17T11:57:23;5.63;;;4.72;;
70946;SDS011;58605;48.700;8.760;2023-08-17T11:59:52;5.30;;;4.80;;
70946;SDS011;58605;48.700;8.760;2023-08-17T12:02:26;5.03;;;4.53;;
70946;SDS011;58605;48.700;8.760;2023-08-17T12:04:54;4.50;;;3.92;;
70946;SDS011;58605;48.700;8.760;2023-08-17T12:07:21;5.47;;;4.70;;
70946;SDS011;58605;48.700;8.760;2023-08-17T12:09:49;6.03;;;4.70;;
70946;SDS011;58605;48.700;8.760;2023-08-17T12:12:17;6.38;;;4.05;;
70946;SDS011;58605;48.700;8.760;2023-08-17T12:14:44;4.05;;;3.50;;
70946;SDS011;58605;48.700;8.760;2023-08-17T12:17:13;5.03;;;4.13;;
70946;SDS011;58605;48.700;8.760;2023-08-17T12:19:40;10.45;;;5.00;;
70946;SDS011;58605;48.700;8.760;2023-08-17T12:22:08;4.68;;;3.90;;
70946;SDS011;58605;48.700;8.760;2023-08-17T12:24:34;6.88;;;4.05;;
70946;SDS011;58605;48.700;8.760;2023-08-17T12:27:01;6.95;;;4.97;;
70946;SDS011;58605;48.700;8.760;2023-08-17T12:29:28;7.53;;;4.47;;
70946;SDS011;58605;48.700;8.760;2023-08-17T12:31:56;7.13;;;4.93;;
70946;SDS011;58605;48.700;8.760;2023-08-17T12:34:22;5.97;;;4.68;;
70946;SDS011;58605;48.700;8.760;2023-08-17T12:36:48;6.45;;;5.05;;
70946;SDS011;58605;48.700;8.760;2023-08-17T12:39:16;7.45;;;5.50;;
70946;SDS011;58605;48.700;8.760;2023-08-17T12:41:43;8.43;;;5.10;;
70946;SDS011;58605;48.700;8.760;2023-08-17T12:44:09;8.40;;;5.10;;
70946;SDS011;58605;48.700;8.760;2023-08-17T12:46:39;6.30;;;4.88;;
70946;SDS011;58605;48.700;8.760;2023-08-17T12:49:05;8.52;;;5.72;;
70946;SDS011;58605;48.700;8.760;2023-08-17T12:51:31;9.43;;;5.65;;
70946;SDS011;58605;48.700;8.760;2023-08-17T12:53:57;8.13;;;5.38;;
70946;SDS011;58605;48.700;8.760;2023-08-17T12:56:25;10.00;;;6.22;;
70946;SDS011;58605;48.700;8.760;2023-08-17T12:58:51;8.68;;;6.10;;
70946;SDS011;58605;48.700;8.760;2023-08-17T13:01:17;8.95;;;6.10;;
70946;SDS011;58605;48.700;8.760;2023-08-17T13:03:44;5.43;;;4.65;;
70946;SDS011;58605;48.700;8.760;2023-08-17T13:06:10;7.35;;;5.28;;
70946;SDS011;58605;48.700;8.760;2023-08-17T13:08:36;6.72;;;4.85;;
70946;SDS011;58605;48.700;8.760;2023-08-17T13:11:02;12.15;;;5.63;;
70946;SDS011;58605;48.700;8.760;2023-08-17T13:13:29;8.10;;;6.07;;
70946;SDS011;58605;48.700;8.760;2023-08-17T13:15:55;9.63;;;6.93;;
70946;SDS011;58605;48.700;8.760;2023-08-17T13:18:22;10.25;;;6.60;;
70946;SDS011;58605;48.700;8.760;2023-08-17T13:20:48;12.38;;;5.20;;
70946;SDS011;58605;48.700;8.760;2023-08-17T13:23:14;16.08;;;5.57;;
70946;SDS011;58605;48.700;8.760;2023-08-17T13:25:40;10.90;;;5.88;;
70946;SDS011;58605;48.700;8.760;2023-08-17T13:28:06;10.60;;;6.00;;
70946;SDS011;58605;48.700;8.760;2023-08-17T13:30:34;9.48;;;6.57;;
70946;SDS011;58605;48.700;8.760;2023-08-17T13:33:00;12.70;;;7.00;;
70946;SDS011;58605;48.700;8.760;2023-08-17T13:35:26;9.73;;;7.13;;
70946;SDS011;58605;48.700;8.760;2023-08-17T13:37:52;11.93;;;8.32;;
70946;SDS011;58605;48.700;8.760;2023-08-17T13:40:22;8.65;;;7.57;;
70946;SDS011;58605;48.700;8.760;2023-08-17T13:42:49;7.75;;;6.95;;
70946;SDS011;58605;48.700;8.760;2023-08-17T13:45:15;11.88;;;7.90;;
70946;SDS011;58605;48.700;8.760;2023-08-17T13:47:43;9.55;;;8.55;;
70946;SDS011;58605;48.700;8.760;2023-08-17T13:50:09;13.10;;;8.93;;
70946;SDS011;58605;48.700;8.760;2023-08-17T13:52:36;10.25;;;8.02;;
70946;SDS011;58605;48.700;8.760;2023-08-17T13:55:02;13.30;;;7.90;;
70946;SDS011;58605;48.700;8.760;2023-08-17T13:57:29;9.80;;;8.02;;
70946;SDS011;58605;48.700;8.760;2023-08-17T13:59:55;10.50;;;6.88;;
70946;SDS011;58605;48.700;8.760;2023-08-17T14:02:21;13.05;;;8.10;;
70946;SDS011;58605;48.700;8.760;2023-08-17T14:04:48;9.82;;;6.60;;
70946;SDS011;58605;48.700;8.760;2023-08-17T14:07:14;10.07;;;8.15;;
70946;SDS011;58605;48.700;8.760;2023-08-17T14:09:41;10.07;;;8.48;;
70946;SDS011;58605;48.700;8.760;2023-08-17T14:12:07;9.65;;;8.55;;
70946;SDS011;58605;48.700;8.760;2023-08-17T14:14:34;12.00;;;8.23;;
70946;SDS011;58605;48.700;8.760;2023-08-17T14:17:00;12.20;;;7.65;;
70946;SDS011;58605;48.700;8.760;2023-08-17T14:19:27;13.48;;;8.25;;
70946;SDS011;58605;48.700;8.760;2023-08-17T14:21:55;10.93;;;7.72;;
70946;SDS011;58605;48.700;8.760;2023-08-17T14:24:21;13.13;;;10.13;;
70946;SDS011;58605;48.700;8.760;2023-08-17T14:26:47;12.10;;;9.25;;
70946;SDS011;58605;48.700;8.760;2023-08-17T14:29:14;11.25;;;9.05;;
70946;SDS011;58605;48.700;8.760;2023-08-17T14:31:40;11.07;;;8.95;;
70946;SDS011;58605;48.700;8.760;2023-08-17T14:34:12;10.38;;;9.27;;
70946;SDS011;58605;48.700;8.760;2023-08-17T14:36:40;15.07;;;8.20;;